MSC Mandraki — SZUH — position and weather

sailwx.info

Track history (hours):
 
Tides and Currents Weather Stations Pressure Air Temp Water Temp Dewpoint Dewpoint Depression Visibility Wind Speed Wind Dir Waves Ship Positions

MSC Mandraki

Last reported at 2014-Nov-12 13:19 UTC. Time now 2014-Nov-24 15:15 UTC.
Position N 40°23' E 014°15'.
Warning: this ship's position is 12 days out of date.

Length 294 m; draft 10.3 m.

Type: Ship. MMSI: 240265000.

Date/timePositionNaut miles runAvg speedWind from/ knotsBaromVisibWave heightAir tempDewpointWater temp
2014-Nov-12 13:19N 40°23' E 014°15'1317.2
2014-Nov-12 12:33N 40°35' E 014°08'1514.8
2014-Nov-12 11:33N 40°48' E 014°17'2 0.4
2014-Nov-12 05:25N 40°50' E 014°17'0 0.0
2014-Nov-11 23:10N 40°50' E 014°17'0 0.0
2014-Nov-11 15:33N 40°50' E 014°17'5 4.7
2014-Nov-11 14:33N 40°46' E 014°15'1716.7
2014-Nov-11 13:33N 40°38' E 013°55'1716.9
2014-Nov-11 12:33N 40°41' E 013°33'20116.5
2014-Nov-11 00:22N 42°34' E 009°51'1415.9
2014-Nov-10 23:27N 42°48' E 009°44'1516.4
2014-Nov-10 22:33N 43°02' E 009°39'1616.2
2014-Nov-10 21:33N 43°18' E 009°42'1616.2
2014-Nov-10 20:33N 43°34' E 009°46'1616.2
2014-Nov-10 19:33N 43°50' E 009°49'1414.3
2014-Nov-10 18:33N 44°05' E 009°51'2 1.8
2014-Nov-10 17:31N 44°06' E 009°51'0 0.0
2014-Nov-10 16:31N 44°06' E 009°51'0 0.0
2014-Nov-10 15:31N 44°06' E 009°51'0 0.0
2014-Nov-10 14:31N 44°06' E 009°51'0 0.0
2014-Nov-10 13:31N 44°06' E 009°51'0 0.0
2014-Nov-10 12:31N 44°06' E 009°51'0 0.0
2014-Nov-10 11:31N 44°06' E 009°51'0 0.0
2014-Nov-10 10:31N 44°06' E 009°51'0 0.0
2014-Nov-10 09:31N 44°06' E 009°51'0 0.0
2014-Nov-10 08:31N 44°06' E 009°51'0 0.0
2014-Nov-10 07:31N 44°06' E 009°51'0 0.0
2014-Nov-10 06:33N 44°06' E 009°51'3 3.4
2014-Nov-10 05:33N 44°03' E 009°52'3 3.0
2014-Nov-10 04:33N 44°01' E 009°56'3 2.7
2014-Nov-10 03:33N 43°59' E 009°54'9 9.1
2014-Nov-10 02:34N 43°53' E 009°45'1515.5
2014-Nov-10 01:33N 43°46' E 009°25'1515.4
2014-Nov-10 00:33N 43°40' E 009°06'1515.2
2014-Nov-09 23:32N 43°34' E 008°46'5215.5
2014-Nov-09 20:13N 43°14' E 007°41'1115.4
2014-Nov-09 19:30N 43°10' E 007°27'1515.8
2014-Nov-09 18:33N 43°04' E 007°08'1515.3
2014-Nov-09 17:33N 42°58' E 006°49'1515.1
2014-Nov-09 16:33N 42°53' E 006°29'1414.5
2014-Nov-09 15:33N 42°54' E 006°09'1413.5
2014-Nov-09 14:33N 42°55' E 005°51'1313.4
2014-Nov-09 13:33N 43°01' E 005°34'1313.4
2014-Nov-09 12:33N 43°06' E 005°17'1413.9
2014-Nov-09 11:33N 43°13' E 005°01'1110.9
2014-Nov-09 10:33N 43°23' E 004°56'4 4.4
2014-Nov-09 09:32N 43°25' E 004°50'0 0.0
2014-Nov-09 08:32N 43°25' E 004°50'0 0.0
2014-Nov-09 07:32N 43°25' E 004°50'0 0.0
2014-Nov-09 06:29N 43°25' E 004°50'0 0.0
2014-Nov-09 05:29N 43°25' E 004°50'0 0.0
2014-Nov-09 04:32N 43°25' E 004°50'0 0.0
2014-Nov-09 03:32N 43°25' E 004°50'0 0.0
2014-Nov-09 02:32N 43°25' E 004°50'0 0.0
2014-Nov-09 01:29N 43°25' E 004°50'0 0.0
2014-Nov-09 00:29N 43°25' E 004°50'0 0.0
2014-Nov-08 23:29N 43°25' E 004°50'0 0.0
2014-Nov-08 22:29N 43°25' E 004°50'0 0.0
2014-Nov-08 21:32N 43°25' E 004°50'0 0.0
2014-Nov-08 20:32N 43°25' E 004°50'0 0.0
2014-Nov-08 19:32N 43°25' E 004°50'0 0.0
2014-Nov-08 18:32N 43°25' E 004°50'0 0.0
2014-Nov-08 17:32N 43°25' E 004°50'2 1.6
2014-Nov-08 16:34N 43°24' E 004°52'9 9.3
2014-Nov-08 15:34N 43°17' E 005°00'1211.7
2014-Nov-08 14:33N 43°05' E 004°59'1615.1
2014-Nov-08 13:30N 42°54' E 004°44'1415.3
2014-Nov-08 12:34N 42°43' E 004°31'1615.8
2014-Nov-08 11:32N 42°31' E 004°16'1615.8
2014-Nov-08 10:30N 42°20' E 004°00'1515.5
2014-Nov-08 09:33N 42°09' E 003°47'1615.3
2014-Nov-08 08:31N 41°58' E 003°32'8215.1
2014-Nov-08 03:04N 40°58' E 002°17'815.1
2014-Nov-08 02:33N 40°52' E 002°10'1514.6
2014-Nov-08 01:33N 40°42' E 001°56'1514.6
2014-Nov-08 00:33N 40°32' E 001°43'1514.7
2014-Nov-07 23:33N 40°21' E 001°30'1414.1
2014-Nov-07 22:33N 40°10' E 001°17'1413.9
2014-Nov-07 21:33N 40°00' E 001°04'1714.2
2014-Nov-07 20:20N 39°48' E 000°49'1114.3
2014-Nov-07 19:33N 39°42' E 000°36'3015.2
2014-Nov-07 17:33N 39°30' E 000°00'1414.4
2014-Nov-07 16:33N 39°25' W 000°17'2 2.0
2014-Nov-07 15:31N 39°26' W 000°20'0 0.0
2014-Nov-07 14:31N 39°26' W 000°20'0 0.0
2014-Nov-07 13:31N 39°26' W 000°20'0 0.0
2014-Nov-07 12:31N 39°26' W 000°20'0 0.0
2014-Nov-07 11:31N 39°26' W 000°20'0 0.0
2014-Nov-07 10:31N 39°26' W 000°20'0 0.0
2014-Nov-07 09:31N 39°26' W 000°20'0 0.0
2014-Nov-07 08:31N 39°26' W 000°20'0 0.0
2014-Nov-07 07:31N 39°26' W 000°20'0 0.0
2014-Nov-07 06:31N 39°26' W 000°20'0 0.0
2014-Nov-07 05:31N 39°26' W 000°20'0 0.0
2014-Nov-07 04:31N 39°26' W 000°20'0 0.0
2014-Nov-07 03:31N 39°26' W 000°20'0 0.0
2014-Nov-07 02:31N 39°26' W 000°20'0 0.0
2014-Nov-07 01:31N 39°26' W 000°20'0 0.0
2014-Nov-07 00:33N 39°26' W 000°20'5 4.6
2014-Nov-06 23:33N 39°24' W 000°14'8715.9
2014-Nov-06 18:08N 39°10' E 001°36'916.3
2014-Nov-06 17:33N 39°08' E 001°48'2316.4
2014-Nov-06 16:10N 39°03' E 002°17'1016.3
2014-Nov-06 15:33N 39°01' E 002°29'1616.3
2014-Nov-06 14:33N 38°57' E 002°49'1716.5
2014-Nov-06 13:33N 38°53' E 003°10'1616.3
2014-Nov-06 12:33N 38°50' E 003°31'1715.9
2014-Nov-06 11:29N 38°46' E 003°52'32115.3
2014-Nov-05 14:33N 37°36' E 010°31'1615.9
2014-Nov-05 13:33N 37°33' E 010°50'1615.7
2014-Nov-05 12:33N 37°29' E 011°09'1615.7
2014-Nov-05 11:33N 37°22' E 011°27'1515.2
2014-Nov-05 10:32N 37°15' E 011°44'10614.8
2014-Nov-05 03:23N 36°41' E 013°50'1416.8
2014-Nov-05 02:33N 36°37' E 014°06'1716.9
2014-Nov-05 01:33N 36°32' E 014°26'44415.8
2014-Nov-03 21:26N 37°26' E 023°38'1517.5
2014-Nov-03 20:33N 37°41' E 023°41'1615.7
2014-Nov-03 19:33N 37°56' E 023°37'1 3.5
2014-Nov-03 19:09N 37°57' E 023°35'0 0.0
2014-Nov-03 18:31N 37°57' E 023°35'0 0.0
2014-Nov-03 18:10N 37°57' E 023°35'0 0.0
2014-Nov-03 17:49N 37°57' E 023°35'0 0.0
2014-Nov-03 17:31N 37°57' E 023°35'0 0.0
2014-Nov-03 16:31N 37°57' E 023°35'0 0.0
2014-Nov-03 14:31N 37°57' E 023°35'0 0.0
2014-Nov-03 13:31N 37°57' E 023°35'0 0.0
2014-Nov-03 12:31N 37°57' E 023°35'0 0.0
2014-Nov-03 11:31N 37°57' E 023°35'0 0.0
2014-Nov-03 10:31N 37°57' E 023°35'0 0.0
2014-Nov-03 09:31N 37°57' E 023°35'0 0.0
2014-Nov-03 08:31N 37°57' E 023°35'0 0.0
2014-Nov-03 07:31N 37°57' E 023°35'0 0.0
2014-Nov-03 06:31N 37°57' E 023°35'0 0.4
2014-Nov-03 05:33N 37°57' E 023°36'2 2.0
2014-Nov-03 04:33N 37°55' E 023°37'7 6.7
2014-Nov-03 03:33N 37°49' E 023°40'1313.1
2014-Nov-03 02:33N 37°37' E 023°47'4515.1
2014-Nov-02 23:33N 36°54' E 024°05'1615.3
2014-Nov-02 22:32N 36°39' E 024°11'1515.4
2014-Nov-02 21:33N 36°29' E 024°25'1615.7
2014-Nov-02 20:33N 36°19' E 024°40'1615.5
2014-Nov-02 19:33N 36°11' E 024°56'1615.9
2014-Nov-02 18:33N 36°01' E 025°12'1615.7
2014-Nov-02 17:33N 35°52' E 025°28'1615.9
2014-Nov-02 16:33N 35°43' E 025°44'  
Track history (hours):
 
Tides and Currents Weather Stations Pressure Air Temp Water Temp Dewpoint Dewpoint Depression Visibility Wind Speed Wind Dir Waves Ship Positions

MSC Mandraki

Last reported at 2014-Nov-12 13:19 UTC. Time now 2014-Nov-24 15:15 UTC.
Position N 40°23' E 014°15'.
Warning: this ship's position is 12 days out of date.

Length 294 m; draft 10.3 m.

Type: Ship. MMSI: 240265000.

Date/timePositionNaut miles runAvg speedWind from/ knotsBaromVisibWave heightAir tempDewpointWater temp
2014-Nov-12 13:19N 40°23' E 014°15'1317.2
2014-Nov-12 12:33N 40°35' E 014°08'1514.8
2014-Nov-12 11:33N 40°48' E 014°17'2 0.4
2014-Nov-12 05:25N 40°50' E 014°17'0 0.0
2014-Nov-11 23:10N 40°50' E 014°17'0 0.0
2014-Nov-11 15:33N 40°50' E 014°17'5 4.7
2014-Nov-11 14:33N 40°46' E 014°15'1716.7
2014-Nov-11 13:33N 40°38' E 013°55'1716.9
2014-Nov-11 12:33N 40°41' E 013°33'20116.5
2014-Nov-11 00:22N 42°34' E 009°51'1415.9
2014-Nov-10 23:27N 42°48' E 009°44'1516.4
2014-Nov-10 22:33N 43°02' E 009°39'1616.2
2014-Nov-10 21:33N 43°18' E 009°42'1616.2
2014-Nov-10 20:33N 43°34' E 009°46'1616.2
2014-Nov-10 19:33N 43°50' E 009°49'1414.3
2014-Nov-10 18:33N 44°05' E 009°51'2 1.8
2014-Nov-10 17:31N 44°06' E 009°51'0 0.0
2014-Nov-10 16:31N 44°06' E 009°51'0 0.0
2014-Nov-10 15:31N 44°06' E 009°51'0 0.0
2014-Nov-10 14:31N 44°06' E 009°51'0 0.0
2014-Nov-10 13:31N 44°06' E 009°51'0 0.0
2014-Nov-10 12:31N 44°06' E 009°51'0 0.0
2014-Nov-10 11:31N 44°06' E 009°51'0 0.0
2014-Nov-10 10:31N 44°06' E 009°51'0 0.0
2014-Nov-10 09:31N 44°06' E 009°51'0 0.0
2014-Nov-10 08:31N 44°06' E 009°51'0 0.0
2014-Nov-10 07:31N 44°06' E 009°51'0 0.0
2014-Nov-10 06:33N 44°06' E 009°51'3 3.4
2014-Nov-10 05:33N 44°03' E 009°52'3 3.0
2014-Nov-10 04:33N 44°01' E 009°56'3 2.7
2014-Nov-10 03:33N 43°59' E 009°54'9 9.1
2014-Nov-10 02:34N 43°53' E 009°45'1515.5
2014-Nov-10 01:33N 43°46' E 009°25'1515.4
2014-Nov-10 00:33N 43°40' E 009°06'1515.2
2014-Nov-09 23:32N 43°34' E 008°46'5215.5
2014-Nov-09 20:13N 43°14' E 007°41'1115.4
2014-Nov-09 19:30N 43°10' E 007°27'1515.8
2014-Nov-09 18:33N 43°04' E 007°08'1515.3
2014-Nov-09 17:33N 42°58' E 006°49'1515.1
2014-Nov-09 16:33N 42°53' E 006°29'1414.5
2014-Nov-09 15:33N 42°54' E 006°09'1413.5
2014-Nov-09 14:33N 42°55' E 005°51'1313.4
2014-Nov-09 13:33N 43°01' E 005°34'1313.4
2014-Nov-09 12:33N 43°06' E 005°17'1413.9
2014-Nov-09 11:33N 43°13' E 005°01'1110.9
2014-Nov-09 10:33N 43°23' E 004°56'4 4.4
2014-Nov-09 09:32N 43°25' E 004°50'0 0.0
2014-Nov-09 08:32N 43°25' E 004°50'0 0.0
2014-Nov-09 07:32N 43°25' E 004°50'0 0.0
2014-Nov-09 06:29N 43°25' E 004°50'0 0.0
2014-Nov-09 05:29N 43°25' E 004°50'0 0.0
2014-Nov-09 04:32N 43°25' E 004°50'0 0.0
2014-Nov-09 03:32N 43°25' E 004°50'0 0.0
2014-Nov-09 02:32N 43°25' E 004°50'0 0.0
2014-Nov-09 01:29N 43°25' E 004°50'0 0.0
2014-Nov-09 00:29N 43°25' E 004°50'0 0.0
2014-Nov-08 23:29N 43°25' E 004°50'0 0.0
2014-Nov-08 22:29N 43°25' E 004°50'0 0.0
2014-Nov-08 21:32N 43°25' E 004°50'0 0.0
2014-Nov-08 20:32N 43°25' E 004°50'0 0.0
2014-Nov-08 19:32N 43°25' E 004°50'0 0.0
2014-Nov-08 18:32N 43°25' E 004°50'0 0.0
2014-Nov-08 17:32N 43°25' E 004°50'2 1.6
2014-Nov-08 16:34N 43°24' E 004°52'9 9.3
2014-Nov-08 15:34N 43°17' E 005°00'1211.7
2014-Nov-08 14:33N 43°05' E 004°59'1615.1
2014-Nov-08 13:30N 42°54' E 004°44'1415.3
2014-Nov-08 12:34N 42°43' E 004°31'1615.8
2014-Nov-08 11:32N 42°31' E 004°16'1615.8
2014-Nov-08 10:30N 42°20' E 004°00'1515.5
2014-Nov-08 09:33N 42°09' E 003°47'1615.3
2014-Nov-08 08:31N 41°58' E 003°32'8215.1
2014-Nov-08 03:04N 40°58' E 002°17'815.1
2014-Nov-08 02:33N 40°52' E 002°10'1514.6
2014-Nov-08 01:33N 40°42' E 001°56'1514.6
2014-Nov-08 00:33N 40°32' E 001°43'1514.7
2014-Nov-07 23:33N 40°21' E 001°30'1414.1
2014-Nov-07 22:33N 40°10' E 001°17'1413.9
2014-Nov-07 21:33N 40°00' E 001°04'1714.2
2014-Nov-07 20:20N 39°48' E 000°49'1114.3
2014-Nov-07 19:33N 39°42' E 000°36'3015.2
2014-Nov-07 17:33N 39°30' E 000°00'1414.4
2014-Nov-07 16:33N 39°25' W 000°17'2 2.0
2014-Nov-07 15:31N 39°26' W 000°20'0 0.0
2014-Nov-07 14:31N 39°26' W 000°20'0 0.0
2014-Nov-07 13:31N 39°26' W 000°20'0 0.0
2014-Nov-07 12:31N 39°26' W 000°20'0 0.0
2014-Nov-07 11:31N 39°26' W 000°20'0 0.0
2014-Nov-07 10:31N 39°26' W 000°20'0 0.0
2014-Nov-07 09:31N 39°26' W 000°20'0 0.0
2014-Nov-07 08:31N 39°26' W 000°20'0 0.0
2014-Nov-07 07:31N 39°26' W 000°20'0 0.0
2014-Nov-07 06:31N 39°26' W 000°20'0 0.0
2014-Nov-07 05:31N 39°26' W 000°20'0 0.0
2014-Nov-07 04:31N 39°26' W 000°20'0 0.0
2014-Nov-07 03:31N 39°26' W 000°20'0 0.0
2014-Nov-07 02:31N 39°26' W 000°20'0 0.0
2014-Nov-07 01:31N 39°26' W 000°20'0 0.0
2014-Nov-07 00:33N 39°26' W 000°20'5 4.6
2014-Nov-06 23:33N 39°24' W 000°14'8715.9
2014-Nov-06 18:08N 39°10' E 001°36'916.3
2014-Nov-06 17:33N 39°08' E 001°48'2316.4
2014-Nov-06 16:10N 39°03' E 002°17'1016.3
2014-Nov-06 15:33N 39°01' E 002°29'1616.3
2014-Nov-06 14:33N 38°57' E 002°49'1716.5
2014-Nov-06 13:33N 38°53' E 003°10'1616.3
2014-Nov-06 12:33N 38°50' E 003°31'1715.9
2014-Nov-06 11:29N 38°46' E 003°52'32115.3
2014-Nov-05 14:33N 37°36' E 010°31'1615.9
2014-Nov-05 13:33N 37°33' E 010°50'1615.7
2014-Nov-05 12:33N 37°29' E 011°09'1615.7
2014-Nov-05 11:33N 37°22' E 011°27'1515.2
2014-Nov-05 10:32N 37°15' E 011°44'10614.8
2014-Nov-05 03:23N 36°41' E 013°50'1416.8
2014-Nov-05 02:33N 36°37' E 014°06'1716.9
2014-Nov-05 01:33N 36°32' E 014°26'44415.8
2014-Nov-03 21:26N 37°26' E 023°38'1517.5
2014-Nov-03 20:33N 37°41' E 023°41'1615.7
2014-Nov-03 19:33N 37°56' E 023°37'1 3.5
2014-Nov-03 19:09N 37°57' E 023°35'0 0.0
2014-Nov-03 18:31N 37°57' E 023°35'0 0.0
2014-Nov-03 18:10N 37°57' E 023°35'0 0.0
2014-Nov-03 17:49N 37°57' E 023°35'0 0.0
2014-Nov-03 17:31N 37°57' E 023°35'0 0.0
2014-Nov-03 16:31N 37°57' E 023°35'0 0.0
2014-Nov-03 14:31N 37°57' E 023°35'0 0.0
2014-Nov-03 13:31N 37°57' E 023°35'0 0.0
2014-Nov-03 12:31N 37°57' E 023°35'0 0.0
2014-Nov-03 11:31N 37°57' E 023°35'0 0.0
2014-Nov-03 10:31N 37°57' E 023°35'0 0.0
2014-Nov-03 09:31N 37°57' E 023°35'0 0.0
2014-Nov-03 08:31N 37°57' E 023°35'0 0.0
2014-Nov-03 07:31N 37°57' E 023°35'0 0.0
2014-Nov-03 06:31N 37°57' E 023°35'0 0.4
2014-Nov-03 05:33N 37°57' E 023°36'2 2.0
2014-Nov-03 04:33N 37°55' E 023°37'7 6.7
2014-Nov-03 03:33N 37°49' E 023°40'1313.1
2014-Nov-03 02:33N 37°37' E 023°47'4515.1
2014-Nov-02 23:33N 36°54' E 024°05'1615.3
2014-Nov-02 22:32N 36°39' E 024°11'1515.4
2014-Nov-02 21:33N 36°29' E 024°25'1615.7
2014-Nov-02 20:33N 36°19' E 024°40'1615.5
2014-Nov-02 19:33N 36°11' E 024°56'1615.9
2014-Nov-02 18:33N 36°01' E 025°12'1615.7
2014-Nov-02 17:33N 35°52' E 025°28'1615.9
2014-Nov-02 16:33N 35°43' E 025°44'  

Dump ship's entire track history